createdAt,value
2023-01-15T00:00:56.827Z,6.60
2023-01-15T00:03:42.675Z,6.60
2023-01-15T00:06:28.597Z,6.60
2023-01-15T00:09:15.902Z,6.50
2023-01-15T00:12:02.240Z,6.50
2023-01-15T00:14:48.821Z,6.60
2023-01-15T00:17:34.818Z,6.50
2023-01-15T00:20:21.828Z,6.50
2023-01-15T00:23:30.878Z,6.50
2023-01-15T00:26:37.740Z,6.50
2023-01-15T00:29:30.815Z,6.50
2023-01-15T00:32:16.979Z,6.50
2023-01-15T00:35:02.912Z,6.50
2023-01-15T00:37:49.948Z,6.40
2023-01-15T00:40:36.912Z,6.40
2023-01-15T00:43:22.848Z,6.50
2023-01-15T00:46:09.081Z,6.30
2023-01-15T00:48:55.581Z,6.40
2023-01-15T00:51:41.973Z,6.30
2023-01-15T00:54:27.775Z,6.30
2023-01-15T00:57:13.826Z,6.30
2023-01-15T01:00:00.479Z,6.30
2023-01-15T01:02:47.021Z,6.30
2023-01-15T01:05:32.996Z,6.30
2023-01-15T01:08:19.240Z,6.30
2023-01-15T01:11:09.997Z,6.20
2023-01-15T01:13:58.219Z,6.20
2023-01-15T01:16:47.669Z,6.10
2023-01-15T01:19:34.176Z,6.10
2023-01-15T01:22:20.199Z,6.10
2023-01-15T01:25:09.695Z,6.10
2023-01-15T01:27:56.308Z,6.10
2023-01-15T01:30:42.184Z,6.00
2023-01-15T01:33:31.611Z,6.00
2023-01-15T01:36:18.871Z,6.00
2023-01-15T01:39:07.121Z,5.90
2023-01-15T01:41:53.168Z,5.90
2023-01-15T01:44:45.262Z,5.90
2023-01-15T01:47:33.310Z,5.90
2023-01-15T01:50:19.513Z,5.90
2023-01-15T01:53:20.335Z,5.80
2023-01-15T01:56:09.167Z,5.80
2023-01-15T01:58:59.785Z,5.80
2023-01-15T02:01:50.252Z,5.70
2023-01-15T02:04:38.401Z,5.70
2023-01-15T02:07:25.663Z,5.70
2023-01-15T02:10:17.245Z,5.70
2023-01-15T02:13:24.866Z,5.70
2023-01-15T02:16:16.966Z,5.70
2023-01-15T02:19:21.021Z,5.60
2023-01-15T02:22:20.048Z,5.60
2023-01-15T02:25:29.289Z,5.60
2023-01-15T02:28:18.744Z,5.60
2023-01-15T02:31:14.115Z,5.60
2023-01-15T02:34:11.194Z,5.60
2023-01-15T02:37:05.389Z,5.60
2023-01-15T02:39:54.915Z,5.60
2023-01-15T02:42:46.947Z,5.70
2023-01-15T02:45:39.625Z,5.50
2023-01-15T02:48:32.796Z,5.40
2023-01-15T02:51:25.034Z,5.50
2023-01-15T02:54:15.633Z,5.50
2023-01-15T02:57:04.919Z,5.50
2023-01-15T02:59:54.198Z,5.40
2023-01-15T03:02:53.907Z,5.50
2023-01-15T03:05:45.673Z,5.40
2023-01-15T03:08:32.150Z,5.40
2023-01-15T03:11:22.633Z,5.40
2023-01-15T03:14:24.251Z,5.40
2023-01-15T03:17:36.446Z,5.30
2023-01-15T03:20:28.002Z,5.40
2023-01-15T03:23:17.123Z,5.80
2023-01-15T03:26:03.347Z,5.30
2023-01-15T03:28:51.911Z,5.30
2023-01-15T03:31:41.036Z,5.30
2023-01-15T03:34:50.411Z,5.20
2023-01-15T03:37:38.589Z,5.60
2023-01-15T03:40:25.033Z,5.20
2023-01-15T03:43:34.158Z,5.20
2023-01-15T03:46:41.777Z,5.20
2023-01-15T03:49:58.513Z,5.20
2023-01-15T03:53:23.627Z,5.20
2023-01-15T03:56:41.307Z,5.20
2023-01-15T03:59:37.028Z,5.20
2023-01-15T04:02:25.508Z,5.10
2023-01-15T04:05:12.764Z,5.10
2023-01-15T04:08:02.701Z,5.10
2023-01-15T04:10:59.640Z,5.10
2023-01-15T04:13:50.586Z,5.10
2023-01-15T04:16:47.364Z,5.00
2023-01-15T04:19:33.888Z,5.50
2023-01-15T04:22:25.926Z,5.10
2023-01-15T04:25:12.445Z,5.10
2023-01-15T04:27:58.283Z,5.10
2023-01-15T04:30:44.399Z,5.10
2023-01-15T04:33:30.745Z,5.10
2023-01-15T04:36:16.572Z,5.10
2023-01-15T04:39:03.841Z,5.10
2023-01-15T04:42:16.268Z,5.10
2023-01-15T04:45:02.497Z,5.00
2023-01-15T04:47:48.462Z,5.20
2023-01-15T04:50:40.321Z,5.00
2023-01-15T04:53:26.604Z,5.10
2023-01-15T04:56:12.579Z,4.90
2023-01-15T04:59:01.899Z,5.00
2023-01-15T05:02:02.524Z,5.00
2023-01-15T05:04:50.751Z,4.90
2023-01-15T05:07:36.820Z,4.90
2023-01-15T05:10:23.495Z,5.00
2023-01-15T05:13:09.858Z,4.90
2023-01-15T05:15:56.571Z,5.00
2023-01-15T05:18:44.672Z,5.00
2023-01-15T05:21:34.038Z,5.00
2023-01-15T05:24:20.333Z,4.90
2023-01-15T05:27:06.051Z,5.00
2023-01-15T05:29:54.537Z,4.90
2023-01-15T05:32:40.722Z,4.90
2023-01-15T05:35:26.488Z,4.90
2023-01-15T05:38:12.559Z,4.90
2023-01-15T05:40:58.716Z,5.00
2023-01-15T05:43:44.859Z,4.90
2023-01-15T05:46:31.027Z,5.00
2023-01-15T05:49:20.215Z,5.00
2023-01-15T05:52:06.349Z,5.10
2023-01-15T05:54:52.528Z,5.10
2023-01-15T05:57:38.581Z,5.10
2023-01-15T06:00:26.039Z,5.10
2023-01-15T06:03:12.147Z,5.20
2023-01-15T06:05:58.096Z,5.20
2023-01-15T06:08:46.560Z,5.20
2023-01-15T06:11:33.346Z,5.30
2023-01-15T06:14:19.593Z,5.30
2023-01-15T06:17:05.730Z,5.40
2023-01-15T06:19:52.008Z,5.40
2023-01-15T06:22:38.990Z,5.40
2023-01-15T06:25:24.878Z,5.40
2023-01-15T06:28:12.048Z,5.50
2023-01-15T06:30:58.253Z,5.40
2023-01-15T06:33:45.154Z,5.50
2023-01-15T06:36:31.025Z,5.50
2023-01-15T06:39:17.603Z,5.40
2023-01-15T06:42:23.105Z,5.40
2023-01-15T06:45:31.351Z,5.40
2023-01-15T06:48:17.236Z,5.40
2023-01-15T06:51:03.182Z,5.30
2023-01-15T06:53:49.047Z,5.30
2023-01-15T06:56:35.622Z,5.30
2023-01-15T06:59:21.695Z,5.30
2023-01-15T07:02:07.497Z,5.20
2023-01-15T07:04:53.576Z,5.30
2023-01-15T07:07:39.408Z,5.20
2023-01-15T07:10:25.650Z,5.20
2023-01-15T07:13:11.848Z,5.20
2023-01-15T07:16:05.559Z,5.20
2023-01-15T07:18:51.479Z,5.20
2023-01-15T07:21:37.550Z,5.20
2023-01-15T07:24:23.668Z,5.20
2023-01-15T07:27:09.665Z,5.20
2023-01-15T07:29:55.853Z,5.20
2023-01-15T07:32:41.830Z,5.20
2023-01-15T07:35:27.847Z,5.20
2023-01-15T07:38:13.902Z,5.30
2023-01-15T07:41:18.961Z,5.30
2023-01-15T07:44:23.909Z,5.30
2023-01-15T07:47:40.380Z,5.30
2023-01-15T07:50:29.575Z,5.20
2023-01-15T07:53:15.770Z,5.30
2023-01-15T07:56:01.752Z,5.20
2023-01-15T07:58:50.231Z,5.30
2023-01-15T08:01:36.526Z,5.30
2023-01-15T08:04:22.637Z,5.30
2023-01-15T08:07:09.093Z,5.40
2023-01-15T08:09:55.437Z,5.60
2023-01-15T08:13:00.734Z,5.40
2023-01-15T08:15:47.168Z,5.50
2023-01-15T08:18:33.318Z,5.60
2023-01-15T08:21:19.657Z,5.70
2023-01-15T08:24:05.857Z,5.70
2023-01-15T08:26:52.841Z,5.80
2023-01-15T08:29:39.026Z,6.10
2023-01-15T08:32:25.605Z,6.00
2023-01-15T08:35:13.261Z,5.80
2023-01-15T08:37:59.772Z,5.80
2023-01-15T08:41:02.217Z,6.10
2023-01-15T08:43:48.221Z,5.80
2023-01-15T08:46:34.588Z,5.80
2023-01-15T08:49:21.756Z,5.80
2023-01-15T08:52:07.915Z,5.80
2023-01-15T08:54:53.690Z,5.80
2023-01-15T08:57:39.795Z,5.80
2023-01-15T09:00:25.608Z,5.90
2023-01-15T09:03:11.641Z,5.90
2023-01-15T09:06:01.424Z,6.00
2023-01-15T09:08:47.736Z,6.10
2023-01-15T09:11:34.079Z,6.10
2023-01-15T09:14:58.928Z,6.20
2023-01-15T09:17:32.092Z,6.30
2023-01-15T09:20:19.876Z,6.30
2023-01-15T09:23:05.724Z,6.40
2023-01-15T09:26:01.806Z,6.50
2023-01-15T09:28:47.884Z,6.50
2023-01-15T09:31:33.879Z,6.60
2023-01-15T09:34:20.053Z,6.70
2023-01-15T09:37:05.942Z,6.70
2023-01-15T09:39:52.160Z,6.80
2023-01-15T09:42:52.889Z,6.90
2023-01-15T09:45:52.390Z,7.00
2023-01-15T09:48:45.847Z,7.00
2023-01-15T09:51:31.868Z,7.00
2023-01-15T09:54:41.306Z,7.10
2023-01-15T09:57:29.480Z,7.20
2023-01-15T10:00:20.560Z,7.30
2023-01-15T10:03:43.342Z,7.40
2023-01-15T10:06:41.009Z,7.60
2023-01-15T10:09:37.532Z,7.50
2023-01-15T10:12:36.718Z,7.60
2023-01-15T10:15:47.330Z,7.60
2023-01-15T10:18:33.881Z,7.50
2023-01-15T10:22:02.301Z,7.50
2023-01-15T10:24:58.610Z,7.50
2023-01-15T10:27:50.326Z,7.60
2023-01-15T10:30:44.917Z,7.50
2023-01-15T10:34:00.431Z,7.50
2023-01-15T10:36:59.365Z,7.50
2023-01-15T10:40:10.599Z,7.60
2023-01-15T10:43:27.279Z,7.60
2023-01-15T10:46:18.601Z,7.60
2023-01-15T10:49:14.768Z,7.60
2023-01-15T10:52:13.811Z,7.60
2023-01-15T10:55:27.123Z,7.50
2023-01-15T10:58:38.919Z,7.50
2023-01-15T11:01:28.838Z,7.50
2023-01-15T11:04:15.293Z,7.50
2023-01-15T11:07:03.170Z,7.50
2023-01-15T11:09:49.240Z,7.50
2023-01-15T11:12:54.180Z,7.60
2023-01-15T11:16:03.353Z,7.40
2023-01-15T11:19:08.265Z,7.40
2023-01-15T11:21:54.603Z,7.40
2023-01-15T11:25:01.251Z,7.50
2023-01-15T11:27:50.078Z,7.50
2023-01-15T11:30:38.290Z,7.50
2023-01-15T11:33:27.863Z,7.60
2023-01-15T11:36:25.757Z,7.70
2023-01-15T11:39:26.987Z,7.80
2023-01-15T11:42:35.514Z,8.00
2023-01-15T11:45:41.393Z,8.00
2023-01-15T11:48:45.727Z,8.20
2023-01-15T11:51:52.469Z,8.20
2023-01-15T11:54:45.796Z,8.30
2023-01-15T11:57:33.987Z,8.30
2023-01-15T12:00:30.665Z,8.30
2023-01-15T12:03:24.134Z,8.40
2023-01-15T12:06:14.875Z,8.30
2023-01-15T12:09:36.297Z,8.40
2023-01-15T12:12:45.530Z,8.40
2023-01-15T12:15:43.650Z,8.40
2023-01-15T12:18:44.796Z,8.40
2023-01-15T12:21:36.839Z,8.30
2023-01-15T12:24:47.810Z,8.30
2023-01-15T12:27:43.859Z,8.20
2023-01-15T12:30:57.942Z,8.10
2023-01-15T12:34:06.994Z,8.00
2023-01-15T12:37:03.942Z,8.00
2023-01-15T12:39:55.684Z,7.90
2023-01-15T12:43:03.159Z,7.90
2023-01-15T12:45:57.482Z,8.00
2023-01-15T12:48:54.537Z,8.10
2023-01-15T12:52:07.503Z,8.20
2023-01-15T12:55:07.127Z,8.20
2023-01-15T12:58:10.834Z,8.30
2023-01-15T13:01:09.307Z,8.40
2023-01-15T13:04:12.851Z,8.40
2023-01-15T13:07:22.625Z,8.40
2023-01-15T13:10:23.963Z,8.40
2023-01-15T13:13:24.855Z,8.30
2023-01-15T13:16:29.612Z,8.40
2023-01-15T13:19:18.751Z,8.40
2023-01-15T13:22:19.378Z,8.40
2023-01-15T13:25:20.049Z,8.50
2023-01-15T13:28:24.696Z,8.60
2023-01-15T13:31:29.703Z,8.70
2023-01-15T13:34:38.935Z,8.80
2023-01-15T13:37:40.794Z,8.90
2023-01-15T13:40:44.363Z,8.90
2023-01-15T13:43:39.597Z,8.80
2023-01-15T13:46:25.877Z,8.80
2023-01-15T13:49:22.763Z,8.70
2023-01-15T13:52:27.354Z,8.50
2023-01-15T13:55:19.539Z,8.40
2023-01-15T13:58:28.500Z,8.30
2023-01-15T14:01:17.547Z,8.30
2023-01-15T14:04:13.198Z,8.20
2023-01-15T14:06:59.376Z,8.20
2023-01-15T14:09:45.336Z,8.30
2023-01-15T14:12:57.738Z,8.30
2023-01-15T14:15:56.008Z,8.40
2023-01-15T14:19:22.809Z,8.50
2023-01-15T14:22:34.114Z,8.50
2023-01-15T14:25:50.178Z,8.50
2023-01-15T14:29:01.093Z,8.40
2023-01-15T14:31:51.897Z,8.40
2023-01-15T14:34:42.517Z,8.40
2023-01-15T14:37:36.900Z,8.40
2023-01-15T14:40:31.232Z,8.30
2023-01-15T14:43:21.562Z,8.20
2023-01-15T14:46:19.167Z,8.10
2023-01-15T14:49:05.384Z,8.10
2023-01-15T14:51:52.120Z,8.00
2023-01-15T14:54:40.163Z,7.90
2023-01-15T14:57:27.097Z,7.90
2023-01-15T15:00:19.321Z,7.90
2023-01-15T15:03:17.920Z,7.80
2023-01-15T15:06:06.749Z,7.80
2023-01-15T15:08:58.496Z,7.70
2023-01-15T15:12:07.683Z,7.70
2023-01-15T15:15:15.280Z,7.70
2023-01-15T15:18:20.612Z,7.60
2023-01-15T15:21:12.375Z,7.80
2023-01-15T15:24:23.428Z,7.50
2023-01-15T15:27:23.353Z,7.50
2023-01-15T15:30:12.038Z,7.50
2023-01-15T15:32:58.104Z,7.40
2023-01-15T15:35:56.810Z,7.40
2023-01-15T15:38:55.475Z,7.30
2023-01-15T15:42:07.104Z,7.30
2023-01-15T15:45:17.785Z,7.20
2023-01-15T15:48:40.498Z,7.20
2023-01-15T15:51:40.154Z,7.10
2023-01-15T15:54:30.919Z,7.10
2023-01-15T15:57:19.217Z,7.00
2023-01-15T16:00:15.819Z,7.00
2023-01-15T16:03:07.488Z,6.90
2023-01-15T16:06:06.359Z,6.90
2023-01-15T16:08:54.482Z,6.80
2023-01-15T16:11:41.377Z,6.70
2023-01-15T16:14:30.147Z,6.60
2023-01-15T16:17:18.856Z,6.60
2023-01-15T16:20:05.765Z,6.50
2023-01-15T16:23:03.612Z,6.50
2023-01-15T16:26:00.822Z,6.50
2023-01-15T16:28:54.686Z,6.40
2023-01-15T16:31:41.367Z,6.30
2023-01-15T16:34:31.067Z,6.30
2023-01-15T16:37:30.677Z,6.20
2023-01-15T16:40:29.368Z,6.20
2023-01-15T16:43:20.734Z,6.10
2023-01-15T16:46:18.459Z,6.10
2023-01-15T16:49:26.906Z,6.00
2023-01-15T16:52:36.362Z,5.90
2023-01-15T16:55:35.898Z,5.90
2023-01-15T16:58:34.103Z,5.80
2023-01-15T17:01:39.026Z,5.80
2023-01-15T17:04:28.975Z,5.80
2023-01-15T17:07:27.888Z,5.80
2023-01-15T17:10:26.133Z,5.70
2023-01-15T17:13:24.436Z,5.70
2023-01-15T17:16:14.748Z,5.70
2023-01-15T17:19:05.898Z,5.70
2023-01-15T17:21:51.850Z,5.70
2023-01-15T17:24:37.988Z,5.70
2023-01-15T17:27:25.164Z,5.70
2023-01-15T17:30:12.858Z,5.70
2023-01-15T17:33:03.384Z,5.60
2023-01-15T17:35:49.604Z,5.60
2023-01-15T17:38:36.078Z,5.60
2023-01-15T17:41:23.094Z,5.60
2023-01-15T17:44:10.400Z,5.50
2023-01-15T17:46:58.462Z,5.50
2023-01-15T17:49:44.931Z,5.50
2023-01-15T17:52:30.943Z,5.40
2023-01-15T17:55:40.932Z,5.40
2023-01-15T17:58:45.179Z,5.40
2023-01-15T18:01:55.790Z,5.40
2023-01-15T18:05:07.043Z,5.40
2023-01-15T18:07:56.637Z,5.30
2023-01-15T18:10:43.397Z,5.30
2023-01-15T18:13:29.350Z,5.30
2023-01-15T18:16:16.790Z,5.30
2023-01-15T18:19:03.264Z,5.30
2023-01-15T18:21:49.658Z,5.30
2023-01-15T18:24:36.429Z,5.30
2023-01-15T18:27:27.933Z,5.30
2023-01-15T18:30:16.278Z,5.30
2023-01-15T18:33:04.049Z,5.30
2023-01-15T18:35:50.130Z,5.30
2023-01-15T18:38:38.131Z,5.30
2023-01-15T18:41:36.722Z,5.30
2023-01-15T18:44:44.115Z,5.20
2023-01-15T18:47:30.129Z,5.20
2023-01-15T18:50:16.382Z,5.20
2023-01-15T18:53:02.461Z,5.20
2023-01-15T18:55:48.556Z,5.30
2023-01-15T18:58:34.522Z,5.30
2023-01-15T19:01:20.373Z,5.30
2023-01-15T19:04:07.354Z,5.40
2023-01-15T19:06:54.252Z,5.40
2023-01-15T19:09:40.003Z,5.50
2023-01-15T19:12:26.041Z,5.50
2023-01-15T19:15:37.167Z,5.50
2023-01-15T19:18:41.645Z,5.40
2023-01-15T19:21:27.379Z,5.40
2023-01-15T19:24:13.699Z,5.30
2023-01-15T19:26:59.999Z,5.30
2023-01-15T19:29:45.933Z,5.20
2023-01-15T19:32:32.417Z,5.20
2023-01-15T19:35:19.165Z,5.20
2023-01-15T19:38:08.288Z,5.20
2023-01-15T19:41:14.523Z,5.10
2023-01-15T19:44:19.298Z,5.10
2023-01-15T19:47:25.828Z,5.00
2023-01-15T19:50:19.603Z,5.00
2023-01-15T19:53:06.617Z,5.00
2023-01-15T19:55:52.988Z,4.90
2023-01-15T19:58:39.464Z,4.90
2023-01-15T20:01:26.085Z,4.90
2023-01-15T20:04:12.374Z,4.90
2023-01-15T20:06:58.217Z,4.90
2023-01-15T20:09:45.231Z,4.80
2023-01-15T20:12:50.444Z,4.80
2023-01-15T20:15:38.850Z,4.80
2023-01-15T20:18:24.831Z,4.80
2023-01-15T20:21:14.441Z,4.80
2023-01-15T20:24:00.934Z,4.70
2023-01-15T20:26:47.099Z,4.70
2023-01-15T20:29:33.211Z,4.70
2023-01-15T20:32:19.501Z,4.60
2023-01-15T20:35:08.295Z,4.70
2023-01-15T20:37:57.598Z,4.60
2023-01-15T20:40:43.594Z,4.60
2023-01-15T20:43:47.989Z,4.60
2023-01-15T20:46:34.087Z,4.60
2023-01-15T20:49:27.302Z,4.60
2023-01-15T20:52:13.375Z,4.50
2023-01-15T20:54:59.562Z,4.50
2023-01-15T20:57:47.863Z,4.50
2023-01-15T21:00:35.085Z,4.80
2023-01-15T21:03:21.375Z,4.50
2023-01-15T21:06:08.187Z,4.50
2023-01-15T21:08:54.285Z,4.50
2023-01-15T21:11:40.429Z,4.40
2023-01-15T21:14:27.343Z,4.40
2023-01-15T21:17:14.437Z,4.40
2023-01-15T21:20:00.601Z,4.30
2023-01-15T21:22:47.587Z,4.40
2023-01-15T21:25:33.979Z,4.30
2023-01-15T21:28:20.034Z,4.30
2023-01-15T21:31:09.878Z,4.30
2023-01-15T21:33:57.012Z,4.30
2023-01-15T21:36:46.508Z,4.20
2023-01-15T21:39:32.889Z,4.30
2023-01-15T21:42:39.596Z,4.30
2023-01-15T21:45:26.260Z,4.20
2023-01-15T21:48:12.269Z,4.30
2023-01-15T21:50:59.090Z,4.30
2023-01-15T21:53:45.253Z,4.30
2023-01-15T21:56:31.331Z,4.30
2023-01-15T21:59:17.442Z,4.30
2023-01-15T22:02:03.882Z,4.30
2023-01-15T22:04:50.313Z,4.30
2023-01-15T22:07:39.435Z,4.30
2023-01-15T22:10:25.506Z,4.30
2023-01-15T22:13:11.634Z,4.30
2023-01-15T22:15:57.690Z,4.30
2023-01-15T22:18:47.155Z,4.30
2023-01-15T22:21:33.791Z,4.30
2023-01-15T22:24:20.723Z,4.20
2023-01-15T22:27:08.531Z,4.20
2023-01-15T22:29:54.871Z,4.20
2023-01-15T22:32:41.372Z,4.20
2023-01-15T22:35:27.407Z,4.20
2023-01-15T22:38:14.029Z,4.20
2023-01-15T22:41:00.349Z,4.30
2023-01-15T22:43:48.896Z,4.30
2023-01-15T22:46:36.022Z,4.30
2023-01-15T22:49:23.173Z,4.30
2023-01-15T22:52:09.682Z,4.30
2023-01-15T22:54:56.669Z,4.30
2023-01-15T22:57:42.975Z,4.40
2023-01-15T23:00:29.568Z,4.40
2023-01-15T23:03:17.225Z,4.40
2023-01-15T23:06:08.221Z,4.50
2023-01-15T23:09:02.279Z,4.50
2023-01-15T23:11:50.282Z,4.50
2023-01-15T23:14:36.666Z,4.60
2023-01-15T23:17:22.876Z,4.50
2023-01-15T23:20:10.842Z,4.50
2023-01-15T23:22:57.264Z,4.60
2023-01-15T23:25:43.474Z,4.60
2023-01-15T23:28:30.133Z,4.60
2023-01-15T23:31:16.792Z,4.60
2023-01-15T23:34:03.006Z,4.70
2023-01-15T23:36:49.580Z,4.70
2023-01-15T23:39:35.902Z,4.80
2023-01-15T23:42:42.218Z,4.80
2023-01-15T23:45:54.394Z,4.90
2023-01-15T23:48:40.318Z,5.00
2023-01-15T23:51:26.432Z,5.10
2023-01-15T23:54:12.805Z,5.10
2023-01-15T23:57:00.834Z,5.40
2023-01-15T23:59:47.227Z,5.30
